sensor_id;sensor_type;location;lat;lon;timestamp;P1;durP1;ratioP1;P2;durP2;ratioP2
12163;SDS011;6145;50.192;10.064;2023-04-25T00:02:17;5.73;;;5.07;;
12163;SDS011;6145;50.192;10.064;2023-04-25T00:04:44;4.73;;;4.30;;
12163;SDS011;6145;50.192;10.064;2023-04-25T00:07:11;5.13;;;4.10;;
12163;SDS011;6145;50.192;10.064;2023-04-25T00:09:38;4.70;;;4.20;;
12163;SDS011;6145;50.192;10.064;2023-04-25T00:12:05;6.53;;;4.77;;
12163;SDS011;6145;50.192;10.064;2023-04-25T00:14:32;4.67;;;4.20;;
12163;SDS011;6145;50.192;10.064;2023-04-25T00:17:01;4.77;;;4.27;;
12163;SDS011;6145;50.192;10.064;2023-04-25T00:19:29;4.53;;;4.13;;
12163;SDS011;6145;50.192;10.064;2023-04-25T00:21:57;4.80;;;4.30;;
12163;SDS011;6145;50.192;10.064;2023-04-25T00:24:24;5.37;;;4.87;;
12163;SDS011;6145;50.192;10.064;2023-04-25T00:26:51;5.93;;;4.30;;
12163;SDS011;6145;50.192;10.064;2023-04-25T00:29:17;4.93;;;3.90;;
12163;SDS011;6145;50.192;10.064;2023-04-25T00:31:44;4.60;;;4.20;;
12163;SDS011;6145;50.192;10.064;2023-04-25T00:34:12;5.60;;;4.73;;
12163;SDS011;6145;50.192;10.064;2023-04-25T00:36:39;4.50;;;4.10;;
12163;SDS011;6145;50.192;10.064;2023-04-25T00:39:05;5.40;;;4.90;;
12163;SDS011;6145;50.192;10.064;2023-04-25T00:41:33;4.63;;;3.93;;
12163;SDS011;6145;50.192;10.064;2023-04-25T00:43:59;5.03;;;4.43;;
12163;SDS011;6145;50.192;10.064;2023-04-25T00:46:27;6.70;;;4.77;;
12163;SDS011;6145;50.192;10.064;2023-04-25T00:48:55;7.23;;;4.23;;
12163;SDS011;6145;50.192;10.064;2023-04-25T00:51:23;5.00;;;4.40;;
12163;SDS011;6145;50.192;10.064;2023-04-25T00:53:51;5.60;;;4.43;;
12163;SDS011;6145;50.192;10.064;2023-04-25T00:56:18;5.20;;;4.37;;
12163;SDS011;6145;50.192;10.064;2023-04-25T00:58:46;5.47;;;4.50;;
12163;SDS011;6145;50.192;10.064;2023-04-25T01:01:15;4.57;;;4.17;;
12163;SDS011;6145;50.192;10.064;2023-04-25T01:03:42;5.10;;;4.23;;
12163;SDS011;6145;50.192;10.064;2023-04-25T01:06:12;5.20;;;4.70;;
12163;SDS011;6145;50.192;10.064;2023-04-25T01:08:40;5.20;;;4.70;;
12163;SDS011;6145;50.192;10.064;2023-04-25T01:11:07;5.67;;;4.60;;
12163;SDS011;6145;50.192;10.064;2023-04-25T01:13:34;5.40;;;4.87;;
12163;SDS011;6145;50.192;10.064;2023-04-25T01:16:01;5.50;;;5.00;;
12163;SDS011;6145;50.192;10.064;2023-04-25T01:18:28;6.93;;;5.53;;
12163;SDS011;6145;50.192;10.064;2023-04-25T01:20:55;5.30;;;4.80;;
12163;SDS011;6145;50.192;10.064;2023-04-25T01:23:25;6.13;;;5.17;;
12163;SDS011;6145;50.192;10.064;2023-04-25T01:25:52;6.03;;;5.20;;
12163;SDS011;6145;50.192;10.064;2023-04-25T01:28:19;6.93;;;5.80;;
12163;SDS011;6145;50.192;10.064;2023-04-25T01:30:47;6.00;;;5.40;;
12163;SDS011;6145;50.192;10.064;2023-04-25T01:33:13;7.37;;;5.40;;
12163;SDS011;6145;50.192;10.064;2023-04-25T01:35:41;5.33;;;4.83;;
12163;SDS011;6145;50.192;10.064;2023-04-25T01:38:08;6.23;;;5.47;;
12163;SDS011;6145;50.192;10.064;2023-04-25T01:40:37;5.07;;;4.57;;
12163;SDS011;6145;50.192;10.064;2023-04-25T01:43:05;6.50;;;5.20;;
12163;SDS011;6145;50.192;10.064;2023-04-25T01:45:33;6.10;;;5.00;;
12163;SDS011;6145;50.192;10.064;2023-04-25T01:48:01;5.17;;;4.17;;
12163;SDS011;6145;50.192;10.064;2023-04-25T01:50:28;6.80;;;4.53;;
12163;SDS011;6145;50.192;10.064;2023-04-25T01:52:55;5.67;;;5.17;;
12163;SDS011;6145;50.192;10.064;2023-04-25T01:55:22;6.00;;;5.40;;
12163;SDS011;6145;50.192;10.064;2023-04-25T01:57:50;6.97;;;5.53;;
12163;SDS011;6145;50.192;10.064;2023-04-25T02:00:17;6.40;;;5.57;;
12163;SDS011;6145;50.192;10.064;2023-04-25T02:02:45;6.90;;;6.20;;
12163;SDS011;6145;50.192;10.064;2023-04-25T02:05:13;5.87;;;5.30;;
12163;SDS011;6145;50.192;10.064;2023-04-25T02:07:40;6.87;;;6.07;;
12163;SDS011;6145;50.192;10.064;2023-04-25T02:10:07;6.93;;;5.57;;
12163;SDS011;6145;50.192;10.064;2023-04-25T02:12:35;6.50;;;5.30;;
12163;SDS011;6145;50.192;10.064;2023-04-25T02:15:03;9.10;;;6.53;;
12163;SDS011;6145;50.192;10.064;2023-04-25T02:17:31;6.30;;;5.70;;
12163;SDS011;6145;50.192;10.064;2023-04-25T02:19:58;7.90;;;6.20;;
12163;SDS011;6145;50.192;10.064;2023-04-25T02:22:25;6.83;;;6.13;;
12163;SDS011;6145;50.192;10.064;2023-04-25T02:24:55;6.00;;;5.40;;
12163;SDS011;6145;50.192;10.064;2023-04-25T02:27:21;6.23;;;5.40;;
12163;SDS011;6145;50.192;10.064;2023-04-25T02:29:48;5.87;;;5.27;;
12163;SDS011;6145;50.192;10.064;2023-04-25T02:32:16;7.53;;;5.20;;
12163;SDS011;6145;50.192;10.064;2023-04-25T02:34:43;6.50;;;5.80;;
12163;SDS011;6145;50.192;10.064;2023-04-25T02:37:10;7.33;;;5.40;;
12163;SDS011;6145;50.192;10.064;2023-04-25T02:39:37;6.10;;;5.50;;
12163;SDS011;6145;50.192;10.064;2023-04-25T02:42:03;6.83;;;5.60;;
12163;SDS011;6145;50.192;10.064;2023-04-25T02:44:30;6.53;;;5.73;;
12163;SDS011;6145;50.192;10.064;2023-04-25T02:46:57;7.10;;;5.57;;
12163;SDS011;6145;50.192;10.064;2023-04-25T02:49:25;6.70;;;5.83;;
12163;SDS011;6145;50.192;10.064;2023-04-25T02:51:52;9.23;;;6.20;;
12163;SDS011;6145;50.192;10.064;2023-04-25T02:54:19;8.40;;;6.10;;
12163;SDS011;6145;50.192;10.064;2023-04-25T02:56:46;7.33;;;5.73;;
12163;SDS011;6145;50.192;10.064;2023-04-25T02:59:12;6.30;;;5.67;;
12163;SDS011;6145;50.192;10.064;2023-04-25T03:01:39;6.30;;;5.67;;
12163;SDS011;6145;50.192;10.064;2023-04-25T03:04:06;6.90;;;6.20;;
12163;SDS011;6145;50.192;10.064;2023-04-25T03:06:34;6.70;;;5.63;;
12163;SDS011;6145;50.192;10.064;2023-04-25T03:09:01;5.70;;;4.70;;
12163;SDS011;6145;50.192;10.064;2023-04-25T03:11:28;7.27;;;5.10;;
12163;SDS011;6145;50.192;10.064;2023-04-25T03:13:55;6.70;;;5.93;;
12163;SDS011;6145;50.192;10.064;2023-04-25T03:16:23;6.77;;;5.53;;
12163;SDS011;6145;50.192;10.064;2023-04-25T03:18:50;6.27;;;5.30;;
12163;SDS011;6145;50.192;10.064;2023-04-25T03:21:17;8.83;;;6.90;;
12163;SDS011;6145;50.192;10.064;2023-04-25T03:23:45;6.80;;;6.10;;
12163;SDS011;6145;50.192;10.064;2023-04-25T03:26:12;7.27;;;6.57;;
12163;SDS011;6145;50.192;10.064;2023-04-25T03:28:39;7.60;;;6.57;;
12163;SDS011;6145;50.192;10.064;2023-04-25T03:31:06;8.50;;;7.33;;
12163;SDS011;6145;50.192;10.064;2023-04-25T03:33:32;8.97;;;7.73;;
12163;SDS011;6145;50.192;10.064;2023-04-25T03:35:59;8.00;;;6.63;;
12163;SDS011;6145;50.192;10.064;2023-04-25T03:38:27;8.87;;;7.27;;
12163;SDS011;6145;50.192;10.064;2023-04-25T03:40:55;10.60;;;7.70;;
12163;SDS011;6145;50.192;10.064;2023-04-25T03:43:22;7.50;;;6.63;;
12163;SDS011;6145;50.192;10.064;2023-04-25T03:45:48;8.27;;;6.70;;
12163;SDS011;6145;50.192;10.064;2023-04-25T03:48:15;8.20;;;7.20;;
12163;SDS011;6145;50.192;10.064;2023-04-25T03:50:42;8.30;;;7.17;;
12163;SDS011;6145;50.192;10.064;2023-04-25T03:53:09;8.43;;;6.97;;
12163;SDS011;6145;50.192;10.064;2023-04-25T03:55:36;8.80;;;6.63;;
12163;SDS011;6145;50.192;10.064;2023-04-25T03:58:04;7.30;;;6.13;;
12163;SDS011;6145;50.192;10.064;2023-04-25T04:00:31;7.40;;;6.63;;
12163;SDS011;6145;50.192;10.064;2023-04-25T04:02:57;7.47;;;6.67;;
12163;SDS011;6145;50.192;10.064;2023-04-25T04:05:24;7.87;;;6.80;;
12163;SDS011;6145;50.192;10.064;2023-04-25T04:07:51;7.00;;;6.30;;
12163;SDS011;6145;50.192;10.064;2023-04-25T04:10:18;8.37;;;6.93;;
12163;SDS011;6145;50.192;10.064;2023-04-25T04:12:45;7.93;;;6.50;;
12163;SDS011;6145;50.192;10.064;2023-04-25T04:15:13;11.50;;;7.63;;
12163;SDS011;6145;50.192;10.064;2023-04-25T04:17:40;10.73;;;7.83;;
12163;SDS011;6145;50.192;10.064;2023-04-25T04:20:07;8.70;;;6.77;;
12163;SDS011;6145;50.192;10.064;2023-04-25T04:22:34;11.43;;;7.83;;
12163;SDS011;6145;50.192;10.064;2023-04-25T04:25:01;7.47;;;6.60;;
12163;SDS011;6145;50.192;10.064;2023-04-25T04:27:30;9.97;;;7.37;;
12163;SDS011;6145;50.192;10.064;2023-04-25T04:29:58;9.37;;;8.00;;
12163;SDS011;6145;50.192;10.064;2023-04-25T04:32:26;13.10;;;7.63;;
12163;SDS011;6145;50.192;10.064;2023-04-25T04:34:55;9.37;;;7.10;;
12163;SDS011;6145;50.192;10.064;2023-04-25T04:37:22;9.07;;;7.53;;
12163;SDS011;6145;50.192;10.064;2023-04-25T04:39:49;9.03;;;7.33;;
12163;SDS011;6145;50.192;10.064;2023-04-25T04:42:16;8.47;;;6.97;;
12163;SDS011;6145;50.192;10.064;2023-04-25T04:44:43;10.37;;;8.53;;
12163;SDS011;6145;50.192;10.064;2023-04-25T04:47:10;11.00;;;7.77;;
12163;SDS011;6145;50.192;10.064;2023-04-25T04:49:39;10.53;;;8.33;;
12163;SDS011;6145;50.192;10.064;2023-04-25T04:52:05;11.17;;;8.60;;
12163;SDS011;6145;50.192;10.064;2023-04-25T04:54:32;8.53;;;7.63;;
12163;SDS011;6145;50.192;10.064;2023-04-25T04:57:00;8.57;;;7.53;;
12163;SDS011;6145;50.192;10.064;2023-04-25T04:59:27;8.70;;;7.57;;
12163;SDS011;6145;50.192;10.064;2023-04-25T05:01:53;10.63;;;7.97;;
12163;SDS011;6145;50.192;10.064;2023-04-25T05:04:20;11.83;;;8.83;;
12163;SDS011;6145;50.192;10.064;2023-04-25T05:06:48;14.03;;;8.80;;
12163;SDS011;6145;50.192;10.064;2023-04-25T05:09:17;11.50;;;8.63;;
12163;SDS011;6145;50.192;10.064;2023-04-25T05:15:23;9.97;;;8.50;;
12163;SDS011;6145;50.192;10.064;2023-04-25T05:17:50;10.37;;;8.00;;
12163;SDS011;6145;50.192;10.064;2023-04-25T05:20:17;11.67;;;7.87;;
12163;SDS011;6145;50.192;10.064;2023-04-25T05:22:46;14.53;;;9.13;;
12163;SDS011;6145;50.192;10.064;2023-04-25T05:25:12;13.17;;;10.27;;
12163;SDS011;6145;50.192;10.064;2023-04-25T05:27:39;12.83;;;10.03;;
12163;SDS011;6145;50.192;10.064;2023-04-25T05:30:06;13.00;;;9.73;;
12163;SDS011;6145;50.192;10.064;2023-04-25T05:32:34;10.83;;;8.10;;
12163;SDS011;6145;50.192;10.064;2023-04-25T05:35:01;10.73;;;8.67;;
12163;SDS011;6145;50.192;10.064;2023-04-25T05:37:28;11.17;;;8.43;;
12163;SDS011;6145;50.192;10.064;2023-04-25T05:39:57;11.27;;;7.33;;
12163;SDS011;6145;50.192;10.064;2023-04-25T05:42:24;11.00;;;7.00;;
12163;SDS011;6145;50.192;10.064;2023-04-25T05:44:50;9.10;;;7.00;;
12163;SDS011;6145;50.192;10.064;2023-04-25T05:47:17;8.03;;;6.50;;
12163;SDS011;6145;50.192;10.064;2023-04-25T05:49:44;9.37;;;6.50;;
12163;SDS011;6145;50.192;10.064;2023-04-25T05:52:11;9.53;;;7.00;;
12163;SDS011;6145;50.192;10.064;2023-04-25T05:54:38;8.97;;;6.73;;
12163;SDS011;6145;50.192;10.064;2023-04-25T05:57:06;7.07;;;5.70;;
12163;SDS011;6145;50.192;10.064;2023-04-25T05:59:32;10.77;;;6.63;;
12163;SDS011;6145;50.192;10.064;2023-04-25T06:01:59;7.90;;;7.10;;
12163;SDS011;6145;50.192;10.064;2023-04-25T06:04:26;8.73;;;7.47;;
12163;SDS011;6145;50.192;10.064;2023-04-25T06:06:53;6.67;;;5.80;;
12163;SDS011;6145;50.192;10.064;2023-04-25T06:09:20;11.67;;;5.77;;
12163;SDS011;6145;50.192;10.064;2023-04-25T06:11:47;6.47;;;4.87;;
12163;SDS011;6145;50.192;10.064;2023-04-25T06:14:15;8.37;;;5.30;;
12163;SDS011;6145;50.192;10.064;2023-04-25T06:16:41;8.17;;;5.17;;
12163;SDS011;6145;50.192;10.064;2023-04-25T06:19:08;8.20;;;5.03;;
12163;SDS011;6145;50.192;10.064;2023-04-25T06:21:35;11.83;;;10.73;;
12163;SDS011;6145;50.192;10.064;2023-04-25T06:24:02;6.43;;;4.27;;
12163;SDS011;6145;50.192;10.064;2023-04-25T06:26:29;11.43;;;10.63;;
12163;SDS011;6145;50.192;10.064;2023-04-25T06:28:56;12.23;;;11.27;;
12163;SDS011;6145;50.192;10.064;2023-04-25T06:31:24;16.93;;;15.90;;
12163;SDS011;6145;50.192;10.064;2023-04-25T06:33:50;7.43;;;3.77;;
12163;SDS011;6145;50.192;10.064;2023-04-25T06:36:19;10.27;;;9.40;;
12163;SDS011;6145;50.192;10.064;2023-04-25T06:38:49;5.30;;;4.07;;
12163;SDS011;6145;50.192;10.064;2023-04-25T06:41:16;5.47;;;3.93;;
12163;SDS011;6145;50.192;10.064;2023-04-25T06:43:43;6.77;;;4.40;;
12163;SDS011;6145;50.192;10.064;2023-04-25T06:46:10;7.00;;;4.37;;
12163;SDS011;6145;50.192;10.064;2023-04-25T06:48:38;5.57;;;4.27;;
12163;SDS011;6145;50.192;10.064;2023-04-25T06:51:05;6.43;;;4.40;;
12163;SDS011;6145;50.192;10.064;2023-04-25T06:53:32;6.27;;;3.57;;
12163;SDS011;6145;50.192;10.064;2023-04-25T06:55:59;4.67;;;3.97;;
12163;SDS011;6145;50.192;10.064;2023-04-25T06:58:25;3.60;;;2.97;;
12163;SDS011;6145;50.192;10.064;2023-04-25T07:00:52;8.03;;;4.10;;
12163;SDS011;6145;50.192;10.064;2023-04-25T07:03:19;4.30;;;2.97;;
12163;SDS011;6145;50.192;10.064;2023-04-25T07:05:47;4.77;;;2.90;;
12163;SDS011;6145;50.192;10.064;2023-04-25T07:08:14;4.03;;;3.13;;
12163;SDS011;6145;50.192;10.064;2023-04-25T07:10:41;3.87;;;2.93;;
12163;SDS011;6145;50.192;10.064;2023-04-25T07:13:08;4.77;;;2.60;;
12163;SDS011;6145;50.192;10.064;2023-04-25T07:15:35;5.17;;;3.30;;
12163;SDS011;6145;50.192;10.064;2023-04-25T07:18:01;3.37;;;2.40;;
12163;SDS011;6145;50.192;10.064;2023-04-25T07:20:28;4.97;;;2.53;;
12163;SDS011;6145;50.192;10.064;2023-04-25T07:22:57;3.10;;;2.80;;
12163;SDS011;6145;50.192;10.064;2023-04-25T07:25:24;4.93;;;2.43;;
12163;SDS011;6145;50.192;10.064;2023-04-25T07:27:50;2.67;;;2.43;;
12163;SDS011;6145;50.192;10.064;2023-04-25T07:30:17;3.10;;;2.10;;
12163;SDS011;6145;50.192;10.064;2023-04-25T07:32:44;2.50;;;2.30;;
12163;SDS011;6145;50.192;10.064;2023-04-25T07:35:11;3.87;;;2.47;;
12163;SDS011;6145;50.192;10.064;2023-04-25T07:37:38;3.30;;;2.70;;
12163;SDS011;6145;50.192;10.064;2023-04-25T07:40:07;2.33;;;2.13;;
12163;SDS011;6145;50.192;10.064;2023-04-25T07:42:35;3.03;;;2.10;;
12163;SDS011;6145;50.192;10.064;2023-04-25T07:45:02;2.80;;;2.30;;
12163;SDS011;6145;50.192;10.064;2023-04-25T07:47:29;2.90;;;2.23;;
12163;SDS011;6145;50.192;10.064;2023-04-25T07:49:55;2.33;;;2.13;;
12163;SDS011;6145;50.192;10.064;2023-04-25T07:52:22;3.50;;;2.10;;
12163;SDS011;6145;50.192;10.064;2023-04-25T07:54:49;2.50;;;1.93;;
12163;SDS011;6145;50.192;10.064;2023-04-25T07:57:18;2.20;;;1.87;;
12163;SDS011;6145;50.192;10.064;2023-04-25T07:59:45;2.63;;;2.43;;
12163;SDS011;6145;50.192;10.064;2023-04-25T08:02:12;2.37;;;1.60;;
12163;SDS011;6145;50.192;10.064;2023-04-25T08:04:38;3.87;;;2.60;;
12163;SDS011;6145;50.192;10.064;2023-04-25T08:07:05;5.00;;;2.40;;
12163;SDS011;6145;50.192;10.064;2023-04-25T08:09:32;3.50;;;2.30;;
12163;SDS011;6145;50.192;10.064;2023-04-25T08:12:01;2.30;;;2.10;;
12163;SDS011;6145;50.192;10.064;2023-04-25T08:14:29;2.40;;;2.20;;
12163;SDS011;6145;50.192;10.064;2023-04-25T08:17:00;2.30;;;1.90;;
12163;SDS011;6145;50.192;10.064;2023-04-25T08:19:28;2.40;;;1.90;;
12163;SDS011;6145;50.192;10.064;2023-04-25T08:21:55;2.70;;;2.03;;
12163;SDS011;6145;50.192;10.064;2023-04-25T08:24:21;2.50;;;2.10;;
12163;SDS011;6145;50.192;10.064;2023-04-25T08:26:48;2.23;;;2.03;;
12163;SDS011;6145;50.192;10.064;2023-04-25T08:29:15;3.17;;;1.80;;
12163;SDS011;6145;50.192;10.064;2023-04-25T08:31:43;2.73;;;2.10;;
12163;SDS011;6145;50.192;10.064;2023-04-25T08:34:10;2.80;;;1.80;;
12163;SDS011;6145;50.192;10.064;2023-04-25T08:36:37;2.33;;;2.13;;
12163;SDS011;6145;50.192;10.064;2023-04-25T08:39:03;3.23;;;2.27;;
12163;SDS011;6145;50.192;10.064;2023-04-25T08:41:30;2.73;;;2.33;;
12163;SDS011;6145;50.192;10.064;2023-04-25T08:43:58;1.93;;;1.83;;
12163;SDS011;6145;50.192;10.064;2023-04-25T08:46:26;2.53;;;1.80;;
12163;SDS011;6145;50.192;10.064;2023-04-25T08:48:56;2.93;;;1.67;;
12163;SDS011;6145;50.192;10.064;2023-04-25T08:51:27;3.87;;;2.17;;
12163;SDS011;6145;50.192;10.064;2023-04-25T08:53:57;4.30;;;2.00;;
12163;SDS011;6145;50.192;10.064;2023-04-25T08:56:35;3.27;;;1.90;;
12163;SDS011;6145;50.192;10.064;2023-04-25T08:59:03;2.23;;;2.03;;
12163;SDS011;6145;50.192;10.064;2023-04-25T09:01:29;2.37;;;2.17;;
12163;SDS011;6145;50.192;10.064;2023-04-25T09:03:58;2.73;;;1.90;;
12163;SDS011;6145;50.192;10.064;2023-04-25T09:06:25;2.33;;;1.90;;
12163;SDS011;6145;50.192;10.064;2023-04-25T09:08:52;2.50;;;1.97;;
12163;SDS011;6145;50.192;10.064;2023-04-25T09:13:51;2.20;;;2.00;;
12163;SDS011;6145;50.192;10.064;2023-04-25T09:19:26;2.57;;;2.37;;
12163;SDS011;6145;50.192;10.064;2023-04-25T09:21:55;3.00;;;2.20;;
12163;SDS011;6145;50.192;10.064;2023-04-25T09:24:30;2.30;;;2.03;;
12163;SDS011;6145;50.192;10.064;2023-04-25T09:26:57;2.17;;;2.00;;
12163;SDS011;6145;50.192;10.064;2023-04-25T09:29:28;3.13;;;2.10;;
12163;SDS011;6145;50.192;10.064;2023-04-25T09:32:10;4.43;;;2.37;;
12163;SDS011;6145;50.192;10.064;2023-04-25T09:34:40;3.10;;;2.20;;
12163;SDS011;6145;50.192;10.064;2023-04-25T09:37:09;2.83;;;2.00;;
12163;SDS011;6145;50.192;10.064;2023-04-25T09:39:37;2.83;;;2.40;;
12163;SDS011;6145;50.192;10.064;2023-04-25T09:42:04;2.50;;;2.30;;
12163;SDS011;6145;50.192;10.064;2023-04-25T09:44:31;3.20;;;2.00;;
12163;SDS011;6145;50.192;10.064;2023-04-25T09:46:58;2.67;;;2.30;;
12163;SDS011;6145;50.192;10.064;2023-04-25T09:49:25;2.20;;;2.00;;
12163;SDS011;6145;50.192;10.064;2023-04-25T09:51:56;3.63;;;2.03;;
12163;SDS011;6145;50.192;10.064;2023-04-25T09:54:24;3.00;;;2.20;;
12163;SDS011;6145;50.192;10.064;2023-04-25T09:56:52;2.37;;;2.17;;
12163;SDS011;6145;50.192;10.064;2023-04-25T09:59:20;3.53;;;2.10;;
12163;SDS011;6145;50.192;10.064;2023-04-25T10:01:48;3.33;;;2.10;;
12163;SDS011;6145;50.192;10.064;2023-04-25T10:04:18;3.43;;;2.00;;
12163;SDS011;6145;50.192;10.064;2023-04-25T10:06:47;3.67;;;2.10;;
12163;SDS011;6145;50.192;10.064;2023-04-25T10:09:16;3.77;;;2.27;;
12163;SDS011;6145;50.192;10.064;2023-04-25T10:11:46;2.57;;;2.23;;
12163;SDS011;6145;50.192;10.064;2023-04-25T10:14:14;2.03;;;1.90;;
12163;SDS011;6145;50.192;10.064;2023-04-25T10:16:42;2.30;;;2.20;;
12163;SDS011;6145;50.192;10.064;2023-04-25T10:19:10;2.13;;;2.00;;
12163;SDS011;6145;50.192;10.064;2023-04-25T10:21:37;2.63;;;2.13;;
12163;SDS011;6145;50.192;10.064;2023-04-25T10:24:18;2.27;;;2.07;;
12163;SDS011;6145;50.192;10.064;2023-04-25T10:26:46;3.30;;;2.30;;
12163;SDS011;6145;50.192;10.064;2023-04-25T10:29:15;3.03;;;2.50;;
12163;SDS011;6145;50.192;10.064;2023-04-25T10:31:48;3.67;;;2.50;;
12163;SDS011;6145;50.192;10.064;2023-04-25T10:34:15;3.23;;;2.43;;
12163;SDS011;6145;50.192;10.064;2023-04-25T10:36:42;2.13;;;1.93;;
12163;SDS011;6145;50.192;10.064;2023-04-25T10:39:14;2.40;;;2.20;;
12163;SDS011;6145;50.192;10.064;2023-04-25T10:41:52;2.97;;;2.40;;
12163;SDS011;6145;50.192;10.064;2023-04-25T10:44:21;3.30;;;2.53;;
12163;SDS011;6145;50.192;10.064;2023-04-25T10:46:48;3.73;;;2.20;;
12163;SDS011;6145;50.192;10.064;2023-04-25T10:49:30;2.33;;;2.13;;
12163;SDS011;6145;50.192;10.064;2023-04-25T10:52:17;3.40;;;2.30;;
12163;SDS011;6145;50.192;10.064;2023-04-25T10:54:52;2.40;;;1.87;;
12163;SDS011;6145;50.192;10.064;2023-04-25T10:57:27;2.67;;;2.20;;
12163;SDS011;6145;50.192;10.064;2023-04-25T11:00:08;2.13;;;1.93;;
12163;SDS011;6145;50.192;10.064;2023-04-25T11:02:37;3.30;;;1.83;;
12163;SDS011;6145;50.192;10.064;2023-04-25T11:05:07;1.90;;;1.80;;
12163;SDS011;6145;50.192;10.064;2023-04-25T11:07:37;2.30;;;2.10;;
12163;SDS011;6145;50.192;10.064;2023-04-25T11:10:10;2.23;;;1.90;;
12163;SDS011;6145;50.192;10.064;2023-04-25T11:12:37;3.03;;;2.20;;
12163;SDS011;6145;50.192;10.064;2023-04-25T11:15:04;2.30;;;2.07;;
12163;SDS011;6145;50.192;10.064;2023-04-25T11:17:32;3.37;;;1.97;;
12163;SDS011;6145;50.192;10.064;2023-04-25T11:19:59;1.77;;;1.67;;
12163;SDS011;6145;50.192;10.064;2023-04-25T11:22:26;2.13;;;1.90;;
12163;SDS011;6145;50.192;10.064;2023-04-25T11:24:54;2.63;;;1.93;;
12163;SDS011;6145;50.192;10.064;2023-04-25T11:27:23;2.50;;;1.90;;
12163;SDS011;6145;50.192;10.064;2023-04-25T11:29:50;1.93;;;1.83;;
12163;SDS011;6145;50.192;10.064;2023-04-25T11:32:17;1.70;;;1.60;;
12163;SDS011;6145;50.192;10.064;2023-04-25T11:34:45;2.20;;;2.00;;
12163;SDS011;6145;50.192;10.064;2023-04-25T11:37:13;1.90;;;1.80;;
12163;SDS011;6145;50.192;10.064;2023-04-25T11:39:43;2.40;;;2.20;;
12163;SDS011;6145;50.192;10.064;2023-04-25T11:42:12;3.27;;;2.10;;
12163;SDS011;6145;50.192;10.064;2023-04-25T11:44:40;5.10;;;2.43;;
12163;SDS011;6145;50.192;10.064;2023-04-25T11:47:07;2.80;;;2.17;;
12163;SDS011;6145;50.192;10.064;2023-04-25T11:49:33;2.47;;;2.27;;
12163;SDS011;6145;50.192;10.064;2023-04-25T11:52:01;1.93;;;1.73;;
12163;SDS011;6145;50.192;10.064;2023-04-25T11:54:28;2.83;;;2.20;;
12163;SDS011;6145;50.192;10.064;2023-04-25T11:56:55;2.67;;;2.20;;
12163;SDS011;6145;50.192;10.064;2023-04-25T11:59:23;1.83;;;1.73;;
12163;SDS011;6145;50.192;10.064;2023-04-25T12:01:52;2.73;;;2.30;;
12163;SDS011;6145;50.192;10.064;2023-04-25T12:04:20;2.67;;;1.90;;
12163;SDS011;6145;50.192;10.064;2023-04-25T12:06:48;2.20;;;2.00;;
12163;SDS011;6145;50.192;10.064;2023-04-25T12:09:16;2.43;;;1.97;;
12163;SDS011;6145;50.192;10.064;2023-04-25T12:11:44;2.77;;;2.00;;
12163;SDS011;6145;50.192;10.064;2023-04-25T12:14:12;2.83;;;2.03;;
12163;SDS011;6145;50.192;10.064;2023-04-25T12:16:46;2.70;;;2.03;;
12163;SDS011;6145;50.192;10.064;2023-04-25T12:19:15;1.97;;;1.70;;
12163;SDS011;6145;50.192;10.064;2023-04-25T12:21:43;4.27;;;2.10;;
12163;SDS011;6145;50.192;10.064;2023-04-25T12:24:11;2.67;;;2.37;;
12163;SDS011;6145;50.192;10.064;2023-04-25T12:26:49;4.73;;;2.30;;
12163;SDS011;6145;50.192;10.064;2023-04-25T12:29:20;2.20;;;2.00;;
12163;SDS011;6145;50.192;10.064;2023-04-25T12:31:48;2.33;;;2.13;;
12163;SDS011;6145;50.192;10.064;2023-04-25T12:34:17;2.33;;;2.13;;
12163;SDS011;6145;50.192;10.064;2023-04-25T12:36:44;2.57;;;2.37;;
12163;SDS011;6145;50.192;10.064;2023-04-25T12:39:15;3.17;;;2.20;;
12163;SDS011;6145;50.192;10.064;2023-04-25T12:41:51;3.00;;;1.90;;
12163;SDS011;6145;50.192;10.064;2023-04-25T12:44:19;2.97;;;2.13;;
12163;SDS011;6145;50.192;10.064;2023-04-25T12:46:47;1.97;;;1.77;;
12163;SDS011;6145;50.192;10.064;2023-04-25T12:49:15;2.40;;;1.60;;
12163;SDS011;6145;50.192;10.064;2023-04-25T12:51:43;3.33;;;2.00;;
12163;SDS011;6145;50.192;10.064;2023-04-25T12:54:09;4.53;;;2.03;;
12163;SDS011;6145;50.192;10.064;2023-04-25T12:56:38;3.60;;;1.80;;
12163;SDS011;6145;50.192;10.064;2023-04-25T12:59:06;2.87;;;1.80;;
12163;SDS011;6145;50.192;10.064;2023-04-25T13:01:34;2.80;;;2.13;;
12163;SDS011;6145;50.192;10.064;2023-04-25T13:04:01;3.90;;;2.10;;
12163;SDS011;6145;50.192;10.064;2023-04-25T13:06:28;2.80;;;2.17;;
12163;SDS011;6145;50.192;10.064;2023-04-25T13:08:57;3.43;;;2.37;;
12163;SDS011;6145;50.192;10.064;2023-04-25T13:11:24;3.70;;;2.20;;
12163;SDS011;6145;50.192;10.064;2023-04-25T13:13:50;7.30;;;2.20;;
12163;SDS011;6145;50.192;10.064;2023-04-25T13:16:17;3.10;;;1.90;;
12163;SDS011;6145;50.192;10.064;2023-04-25T13:18:45;6.20;;;2.30;;
12163;SDS011;6145;50.192;10.064;2023-04-25T13:21:12;4.63;;;2.40;;
12163;SDS011;6145;50.192;10.064;2023-04-25T13:23:39;4.60;;;2.47;;
12163;SDS011;6145;50.192;10.064;2023-04-25T13:26:09;3.13;;;2.20;;
12163;SDS011;6145;50.192;10.064;2023-04-25T13:28:35;3.93;;;2.30;;
12163;SDS011;6145;50.192;10.064;2023-04-25T13:31:02;4.30;;;2.10;;
12163;SDS011;6145;50.192;10.064;2023-04-25T13:33:32;5.30;;;2.27;;
12163;SDS011;6145;50.192;10.064;2023-04-25T13:36:11;4.70;;;2.17;;
12163;SDS011;6145;50.192;10.064;2023-04-25T13:38:44;5.03;;;2.40;;
12163;SDS011;6145;50.192;10.064;2023-04-25T13:41:58;3.27;;;2.00;;
12163;SDS011;6145;50.192;10.064;2023-04-25T13:44:41;5.03;;;2.53;;
12163;SDS011;6145;50.192;10.064;2023-04-25T13:47:12;3.17;;;2.00;;
12163;SDS011;6145;50.192;10.064;2023-04-25T13:49:54;5.37;;;2.40;;
12163;SDS011;6145;50.192;10.064;2023-04-25T13:52:27;4.37;;;2.20;;
12163;SDS011;6145;50.192;10.064;2023-04-25T13:54:55;3.77;;;2.10;;
12163;SDS011;6145;50.192;10.064;2023-04-25T13:57:23;3.97;;;2.57;;
12163;SDS011;6145;50.192;10.064;2023-04-25T13:59:50;5.07;;;2.60;;
12163;SDS011;6145;50.192;10.064;2023-04-25T14:02:19;5.43;;;2.30;;
12163;SDS011;6145;50.192;10.064;2023-04-25T14:04:46;6.93;;;2.20;;
12163;SDS011;6145;50.192;10.064;2023-04-25T14:07:17;4.83;;;2.10;;
12163;SDS011;6145;50.192;10.064;2023-04-25T14:09:46;4.07;;;2.30;;
12163;SDS011;6145;50.192;10.064;2023-04-25T14:12:12;3.27;;;2.27;;
12163;SDS011;6145;50.192;10.064;2023-04-25T14:14:41;3.87;;;2.27;;
12163;SDS011;6145;50.192;10.064;2023-04-25T14:17:08;4.43;;;2.40;;
12163;SDS011;6145;50.192;10.064;2023-04-25T14:19:35;5.10;;;2.80;;
12163;SDS011;6145;50.192;10.064;2023-04-25T14:22:03;4.33;;;2.47;;
12163;SDS011;6145;50.192;10.064;2023-04-25T14:24:30;5.30;;;3.33;;
12163;SDS011;6145;50.192;10.064;2023-04-25T14:26:57;3.93;;;2.40;;
12163;SDS011;6145;50.192;10.064;2023-04-25T14:29:24;4.53;;;2.63;;
12163;SDS011;6145;50.192;10.064;2023-04-25T14:34:34;4.47;;;2.63;;
12163;SDS011;6145;50.192;10.064;2023-04-25T14:37:01;3.77;;;2.50;;
12163;SDS011;6145;50.192;10.064;2023-04-25T14:39:28;4.63;;;2.77;;
12163;SDS011;6145;50.192;10.064;2023-04-25T14:41:54;4.50;;;2.90;;
12163;SDS011;6145;50.192;10.064;2023-04-25T14:44:21;7.47;;;2.80;;
12163;SDS011;6145;50.192;10.064;2023-04-25T14:46:48;6.63;;;2.63;;
12163;SDS011;6145;50.192;10.064;2023-04-25T14:49:18;5.13;;;2.53;;
12163;SDS011;6145;50.192;10.064;2023-04-25T14:51:45;6.27;;;2.80;;
12163;SDS011;6145;50.192;10.064;2023-04-25T14:54:11;4.97;;;2.33;;
12163;SDS011;6145;50.192;10.064;2023-04-25T14:56:38;3.60;;;2.47;;
12163;SDS011;6145;50.192;10.064;2023-04-25T14:59:05;4.37;;;2.50;;
12163;SDS011;6145;50.192;10.064;2023-04-25T15:01:32;6.30;;;2.70;;
12163;SDS011;6145;50.192;10.064;2023-04-25T15:03:59;5.90;;;2.90;;